Time;durP1;ratioP1;P1;durP2;ratioP2;P2;SDS_P1;SDS_P2;PMS_P1;PMS_P2;Temp;Humidity;BMP_temperature;BMP_pressure;BME280_temperature;BME280_humidity;BME280_pressure;Samples;Min_cycle;Max_cycle;Signal;HPM_P1;HPM_P2
2022/10/18 00:01:30;;;;;;;22.05;10.00;;;;;;;8.95;100.00;101767.44;5112693;28;20063;-73
2022/10/18 00:03:55;;;;;;;16.88;9.45;;;;;;;8.85;100.00;101751.28;5095092;28;20107;-76
2022/10/18 00:06:21;;;;;;;17.38;10.15;;;;;;;8.56;100.00;101757.78;5113124;28;20409;-75
2022/10/18 00:08:46;;;;;;;16.75;9.02;;;;;;;9.30;100.00;101764.28;5112358;28;20042;-73
2022/10/18 00:11:12;;;;;;;17.65;9.85;;;;;;;9.32;100.00;101809.97;5094496;28;20066;-73
2022/10/18 00:13:37;;;;;;;15.82;9.00;;;;;;;9.29;100.00;101731.28;5112916;28;20038;-75
2022/10/18 00:16:08;;;;;;;16.90;8.70;;;;;;;9.64;100.00;101747.53;5112926;28;20035;-75
2022/10/18 00:18:34;;;;;;;13.63;7.75;;;;;;;9.41;100.00;101775.34;5112395;28;20501;-74
2022/10/18 00:21:01;;;;;;;11.15;7.70;;;;;;;9.32;100.00;101795.59;5094012;28;20130;-74
2022/10/18 00:23:29;;;;;;;14.30;7.05;;;;;;;9.34;100.00;101743.16;5112343;28;20038;-72
2022/10/18 00:26:03;;;;;;;11.85;7.05;;;;;;;9.75;100.00;101781.44;5112384;28;20497;-73
2022/10/18 00:28:28;;;;;;;10.50;7.00;;;;;;;9.81;100.00;101804.31;5112185;28;20062;-72
2022/10/18 00:30:54;;;;;;;9.32;6.50;;;;;;;9.70;100.00;101803.44;5112242;28;20055;-75
2022/10/18 00:33:19;;;;;;;10.77;6.78;;;;;;;9.49;100.00;101767.75;5112250;28;20059;-75
2022/10/18 00:35:45;;;;;;;11.30;6.80;;;;;;;9.43;100.00;101715.28;5093726;28;20122;-71
2022/10/18 00:38:10;;;;;;;13.50;7.57;;;;;;;9.40;100.00;101747.41;5112188;28;20039;-74
2022/10/18 00:40:36;;;;;;;14.82;7.50;;;;;;;9.79;100.00;101800.06;5086563;28;20051;-73
2022/10/18 00:43:01;;;;;;;12.65;7.40;;;;;;;9.23;100.00;101677.97;5092001;28;20020;-75
2022/10/18 00:45:27;;;;;;;14.80;7.50;;;;;;;9.55;100.00;101778.81;5073318;28;20031;-75
2022/10/18 00:47:57;;;;;;;10.50;7.43;;;;;;;9.22;100.00;101716.84;5091538;28;20055;-74
2022/10/18 00:50:25;;;;;;;11.65;7.38;;;;;;;9.69;100.00;101783.94;5091616;28;20036;-74
2022/10/18 00:52:57;;;;;;;14.30;7.80;;;;;;;9.31;100.00;101706.78;5090620;28;20047;-75
2022/10/18 00:55:27;;;;;;;10.85;7.22;;;;;;;9.93;100.00;101768.81;5089341;28;20110;-75
2022/10/18 00:57:53;;;;;;;9.20;7.10;;;;;;;9.52;100.00;101707.72;5096491;28;20558;-75
2022/10/18 01:00:19;;;;;;;10.75;7.55;;;;;;;9.61;100.00;101766.13;5111466;28;20032;-74
2022/10/18 01:02:46;;;;;;;11.43;7.53;;;;;;;10.04;100.00;101759.53;5111757;28;20050;-72
2022/10/18 01:05:15;;;;;;;10.63;7.32;;;;;;;9.72;100.00;101712.00;5112108;28;20027;-73
2022/10/18 01:07:46;;;;;;;10.57;6.82;;;;;;;9.99;100.00;101766.28;5112040;28;20035;-73
2022/10/18 01:10:23;;;;;;;10.40;7.00;;;;;;;10.33;100.00;101759.63;5111762;28;20121;-74
2022/10/18 01:13:20;;;;;;;8.13;5.72;;;;;;;9.95;100.00;101758.66;5111877;28;20144;-73
2022/10/18 01:15:51;;;;;;;7.35;6.03;;;;;;;9.92;100.00;101734.09;5111465;28;20059;-73
2022/10/18 01:18:41;;;;;;;8.55;6.53;;;;;;;10.03;100.00;101752.75;5111286;28;20024;-72
2022/10/18 01:21:13;;;;;;;11.88;6.18;;;;;;;10.18;100.00;101757.91;5112016;28;20028;-75
2022/10/18 01:23:50;;;;;;;11.50;6.72;;;;;;;9.79;100.00;101762.81;5111525;28;20513;-74
2022/10/18 01:26:37;;;;;;;10.20;7.60;;;;;;;9.80;100.00;101761.16;5111301;28;20070;-75
2022/10/18 01:29:30;;;;;;;15.85;7.43;;;;;;;9.29;100.00;101762.56;5111691;28;20107;-73
2022/10/18 01:32:00;;;;;;;11.63;7.63;;;;;;;9.27;100.00;101759.16;5112101;28;20028;-75
2022/10/18 01:34:30;;;;;;;11.77;8.30;;;;;;;8.91;100.00;101755.56;5111584;28;20027;-75
2022/10/18 01:36:56;;;;;;;13.70;8.00;;;;;;;8.74;100.00;101753.72;5111438;28;20038;-75
2022/10/18 01:39:28;;;;;;;14.38;8.90;;;;;;;8.40;100.00;101690.91;5093325;28;20083;-75
2022/10/18 01:41:57;;;;;;;13.07;9.10;;;;;;;8.51;100.00;101721.44;5129606;28;20084;-72
2022/10/18 01:44:25;;;;;;;13.02;8.73;;;;;;;8.23;100.00;101710.16;5132080;28;20049;-75
2022/10/18 01:46:53;;;;;;;12.85;9.00;;;;;;;8.45;100.00;101732.38;5132091;28;20023;-72
2022/10/18 01:49:19;;;;;;;13.85;10.30;;;;;;;8.21;100.00;101694.09;5131804;28;20027;-73
2022/10/18 01:51:45;;;;;;;13.82;9.45;;;;;;;8.41;100.00;101740.78;5113572;28;20118;-74
2022/10/18 01:54:14;;;;;;;13.30;9.43;;;;;;;7.87;100.00;101671.81;5113355;28;20068;-73
2022/10/18 01:57:01;;;;;;;11.68;9.45;;;;;;;8.54;100.00;101734.97;5132329;28;20023;-73
2022/10/18 01:59:45;;;;;;;18.63;9.75;;;;;;;7.94;100.00;101678.66;5113238;28;20095;-73
2022/10/18 02:02:38;;;;;;;12.95;9.73;;;;;;;8.34;100.00;101728.88;5131556;28;20041;-72
2022/10/18 02:05:12;;;;;;;14.85;9.77;;;;;;;8.57;100.00;101719.81;5132178;28;20019;-72
2022/10/18 02:07:47;;;;;;;23.05;11.82;;;;;;;8.25;100.00;101725.41;5131869;28;20445;-73
2022/10/18 02:10:37;;;;;;;18.17;12.30;;;;;;;8.69;100.00;101713.97;5113576;28;20031;-73
2022/10/18 02:13:03;;;;;;;20.73;12.90;;;;;;;8.57;100.00;101718.94;5134245;27;20034;-75
2022/10/18 02:15:34;;;;;;;16.45;11.75;;;;;;;8.47;100.00;101664.81;5131903;27;20106;-73
2022/10/18 02:18:04;;;;;;;16.08;11.05;;;;;;;8.62;100.00;101720.66;5095889;28;20023;-74
2022/10/18 02:20:31;;;;;;;16.67;11.75;;;;;;;8.32;100.00;101717.88;5114571;28;20460;-73
2022/10/18 02:22:59;;;;;;;18.15;11.45;;;;;;;7.99;100.00;101666.88;5114702;28;20043;-76
2022/10/18 02:25:27;;;;;;;16.75;11.98;;;;;;;8.10;100.00;101660.19;5115332;28;20631;-73
2022/10/18 02:27:54;;;;;;;15.15;10.95;;;;;;;8.10;100.00;101669.50;5114667;28;20038;-73
2022/10/18 02:30:31;;;;;;;18.45;11.57;;;;;;;8.32;100.00;101722.94;5096275;27;20024;-76
2022/10/18 02:33:03;;;;;;;18.88;11.93;;;;;;;7.53;100.00;101644.41;5117352;27;20481;-74
2022/10/18 02:35:30;;;;;;;;;;;;;;;7.93;100.00;101714.91;5117429;27;20055;-73
2022/10/18 02:37:57;;;;;;;15.88;11.00;;;;;;;7.83;100.00;101657.41;5135001;27;20442;-73
2022/10/18 02:40:24;;;;;;;16.65;11.57;;;;;;;7.89;100.00;101650.72;5134926;27;20051;-73
2022/10/18 02:42:53;;;;;;;24.05;12.60;;;;;;;7.93;100.00;101709.84;5134938;27;20027;-73
2022/10/18 02:45:19;;;;;;;19.60;10.55;;;;;;;8.16;100.00;101717.69;5116924;27;20023;-73
2022/10/18 02:47:44;;;;;;;13.82;10.02;;;;;;;7.28;100.00;101672.78;5116835;27;20025;-76
2022/10/18 02:50:10;;;;;;;17.65;10.45;;;;;;;7.63;100.00;101706.97;5135010;27;20031;-73
2022/10/18 02:52:36;;;;;;;16.63;9.95;;;;;;;7.06;100.00;101691.03;5116840;27;20027;-72
2022/10/18 02:55:02;;;;;;;15.90;10.90;;;;;;;7.79;100.00;101734.16;5134824;27;20027;-73
2022/10/18 02:57:28;;;;;;;16.70;10.52;;;;;;;7.23;100.00;101659.25;5134756;27;20035;-73
2022/10/18 02:59:54;;;;;;;14.05;10.68;;;;;;;7.51;100.00;101676.44;5134547;27;20031;-73
2022/10/18 03:02:19;;;;;;;21.67;11.10;;;;;;;7.81;100.00;101689.47;5134466;27;20534;-73
2022/10/18 03:04:45;;;;;;;14.63;11.07;;;;;;;8.06;100.00;101753.88;5134643;27;20023;-73
2022/10/18 03:07:10;;;;;;;17.85;11.15;;;;;;;7.45;100.00;101658.66;5116757;27;20408;-74
2022/10/18 03:09:35;;;;;;;16.92;10.02;;;;;;;7.72;100.00;101750.13;5134623;27;20111;-76
2022/10/18 03:12:01;;;;;;;17.17;9.82;;;;;;;7.34;100.00;101627.34;5134835;27;20027;-75
2022/10/18 03:14:26;;;;;;;13.73;9.82;;;;;;;7.76;100.00;101729.06;5135078;27;20084;-75
2022/10/18 03:16:52;;;;;;;13.35;9.38;;;;;;;7.61;100.00;101749.97;5122284;27;20091;-76
2022/10/18 03:19:17;;;;;;;15.15;9.00;;;;;;;7.78;100.00;101757.78;5114273;28;20173;-76
2022/10/18 03:21:43;;;;;;;17.63;9.50;;;;;;;7.81;100.00;101752.75;5113827;28;20481;-75
2022/10/18 03:24:08;;;;;;;20.67;10.10;;;;;;;7.31;100.00;101700.69;5114073;28;20030;-77
2022/10/18 03:26:33;;;;;;;15.95;9.70;;;;;;;6.56;100.00;101698.72;5095692;28;20558;-76
2022/10/18 03:28:59;;;;;;;13.32;9.68;;;;;;;6.52;100.00;101721.38;5095919;28;20411;-75
2022/10/18 03:31:24;;;;;;;11.88;9.07;;;;;;;6.98;100.00;101721.28;5109352;28;20390;-77
2022/10/18 03:33:50;;;;;;;15.65;8.13;;;;;;;8.19;100.00;101732.91;5113740;28;20468;-76
2022/10/18 03:36:15;;;;;;;16.85;9.20;;;;;;;6.93;100.00;101765.88;5112811;28;20031;-74
2022/10/18 03:38:41;;;;;;;12.55;8.55;;;;;;;6.61;100.00;101702.19;5095677;28;20116;-76
2022/10/18 03:41:06;;;;;;;12.38;8.80;;;;;;;7.79;100.00;101762.00;5093497;28;20044;-76
2022/10/18 03:43:32;;;;;;;13.07;9.60;;;;;;;6.74;100.00;101710.78;5119833;27;20023;-77
2022/10/18 03:45:57;;;;;;;16.45;9.82;;;;;;;6.70;100.00;101716.63;5113791;28;20020;-75
2022/10/18 03:48:23;;;;;;;16.30;10.15;;;;;;;6.65;100.00;101693.84;5113661;28;20028;-76
2022/10/18 03:50:48;;;;;;;17.20;9.35;;;;;;;7.77;100.00;101756.94;5114183;28;20031;-76
2022/10/18 03:53:14;;;;;;;14.82;10.32;;;;;;;7.34;100.00;101706.63;5114117;28;20421;-77
2022/10/18 03:55:40;;;;;;;18.10;11.18;;;;;;;6.90;100.00;101700.94;5113140;28;20028;-77
2022/10/18 03:58:05;;;;;;;20.27;11.85;;;;;;;7.16;100.00;101761.16;5113170;28;20113;-76
2022/10/18 04:00:31;;;;;;;16.38;11.20;;;;;;;7.48;100.00;101758.25;5113419;28;20432;-74
2022/10/18 04:02:56;;;;;;;16.00;10.40;;;;;;;7.55;100.00;101764.22;5111339;28;20035;-78
2022/10/18 04:05:23;;;;;;;14.45;10.25;;;;;;;7.45;100.00;101696.63;5113408;28;20027;-78
2022/10/18 04:07:49;;;;;;;20.77;10.15;;;;;;;7.26;100.00;101687.97;5112628;28;20027;-74
2022/10/18 04:10:15;;;;;;;15.93;9.88;;;;;;;7.42;100.00;101715.16;5113240;28;20031;-75
2022/10/18 04:12:40;;;;;;;14.30;10.70;;;;;;;7.57;100.00;101749.91;5112759;28;20074;-76
2022/10/18 04:15:06;;;;;;;20.92;10.43;;;;;;;7.76;100.00;101749.31;5110124;28;20110;-76
2022/10/18 04:17:32;;;;;;;14.63;10.25;;;;;;;7.46;100.00;101709.31;5112632;28;20400;-75
2022/10/18 04:19:57;;;;;;;18.75;10.82;;;;;;;7.20;100.00;101687.03;5117866;27;20470;-79
2022/10/18 04:22:22;;;;;;;20.17;10.95;;;;;;;7.77;100.00;101762.00;5095309;28;20032;-76
2022/10/18 04:24:48;;;;;;;17.88;10.13;;;;;;;7.41;100.00;101689.81;5086392;28;20031;-81
2022/10/18 04:27:13;;;;;;;16.02;10.68;;;;;;;7.87;100.00;101742.69;5113250;28;20560;-76
2022/10/18 04:29:39;;;;;;;18.38;9.95;;;;;;;7.64;100.00;101754.25;5109945;28;20111;-75
2022/10/18 04:32:04;;;;;;;16.90;11.00;;;;;;;7.56;100.00;101738.09;5094830;28;20081;-78
2022/10/18 04:34:30;;;;;;;21.05;11.75;;;;;;;7.30;100.00;101693.91;5094093;28;20031;-76
2022/10/18 04:36:55;;;;;;;21.02;12.18;;;;;;;7.34;100.00;101761.41;5112465;28;20497;-77
2022/10/18 04:39:20;;;;;;;18.80;12.60;;;;;;;7.00;100.00;101677.50;5112691;28;20168;-75
2022/10/18 04:41:46;;;;;;;32.80;13.73;;;;;;;8.10;100.00;101756.44;5111828;28;20077;-74
2022/10/18 04:44:11;;;;;;;23.95;15.75;;;;;;;7.84;100.00;101760.41;5094609;27;20032;-75
2022/10/18 04:46:37;;;;;;;24.92;14.32;;;;;;;7.51;100.00;101737.19;5091996;28;20431;-76
2022/10/18 04:49:02;;;;;;;23.88;16.25;;;;;;;7.26;100.00;101745.28;5073701;28;20085;-75
2022/10/18 04:51:28;;;;;;;29.45;14.23;;;;;;;7.09;100.00;101680.97;5072806;28;20093;-76
2022/10/18 04:53:54;;;;;;;29.13;13.45;;;;;;;7.44;100.00;101759.03;5090405;28;20046;-77
2022/10/18 04:56:19;;;;;;;31.98;15.68;;;;;;;7.73;100.00;101769.53;5090878;28;20024;-77
2022/10/18 04:58:45;;;;;;;35.92;17.05;;;;;;;7.88;100.00;101633.81;5091627;28;20028;-76
2022/10/18 05:01:10;;;;;;;32.47;15.82;;;;;;;9.68;100.00;101774.66;5091046;28;20100;-76
2022/10/18 05:03:36;;;;;;;33.25;13.50;;;;;;;7.87;100.00;101717.38;5090808;28;20028;-76
2022/10/18 05:06:01;;;;;;;30.25;13.50;;;;;;;7.58;100.00;101774.41;5091319;28;20084;-76
2022/10/18 05:08:27;;;;;;;27.33;13.05;;;;;;;7.41;100.00;101680.56;5091313;28;20036;-75
2022/10/18 05:10:52;;;;;;;38.05;17.02;;;;;;;8.00;100.00;101772.41;5091298;28;20093;-76
2022/10/18 05:13:18;;;;;;;35.65;17.80;;;;;;;7.66;100.00;101719.66;5092014;28;20485;-77
2022/10/18 05:15:45;;;;;;;49.25;20.95;;;;;;;8.46;100.00;101786.41;5091800;28;20028;-78
2022/10/18 05:18:11;;;;;;;29.05;15.25;;;;;;;10.83;100.00;101769.84;5092173;28;20047;-76
2022/10/18 05:20:36;;;;;;;29.45;15.15;;;;;;;11.95;100.00;101771.31;5091841;28;20513;-76
2022/10/18 05:23:01;;;;;;;31.90;13.85;;;;;;;12.43;100.00;101788.03;5092260;28;20028;-76
2022/10/18 05:25:27;;;;;;;27.63;13.90;;;;;;;13.32;100.00;101783.91;5091970;28;20107;-77
2022/10/18 05:27:52;;;;;;;29.30;13.32;;;;;;;14.32;100.00;101761.38;5073463;28;20144;-75
2022/10/18 05:30:19;;;;;;;28.95;13.25;;;;;;;14.17;100.00;101725.75;5091056;28;20028;-75
2022/10/18 05:32:44;;;;;;;29.92;15.77;;;;;;;14.00;100.00;101798.47;5073164;28;20028;-74
2022/10/18 05:35:10;;;;;;;33.55;15.80;;;;;;;14.08;100.00;101702.03;5091244;28;20031;-75
2022/10/18 05:37:35;;;;;;;28.35;13.07;;;;;;;15.18;100.00;101731.78;5091114;28;20089;-76
2022/10/18 05:40:00;;;;;;;25.90;14.02;;;;;;;15.21;100.00;101797.50;5091350;28;20055;-75
2022/10/18 05:42:26;;;;;;;19.73;10.35;;;;;;;15.77;100.00;101792.16;5091653;28;20037;-75
2022/10/18 05:44:51;;;;;;;16.95;9.52;;;;;;;15.58;100.00;101788.28;5073386;28;20024;-75
2022/10/18 05:47:16;;;;;;;21.58;9.63;;;;;;;15.39;100.00;101790.31;5074805;28;20028;-75
2022/10/18 05:49:42;;;;;;;16.35;8.48;;;;;;;15.04;100.00;101726.06;5095085;28;20024;-76
2022/10/18 05:52:07;;;;;;;13.15;8.07;;;;;;;15.78;100.00;101765.66;5095376;28;20565;-77
2022/10/18 05:54:33;;;;;;;13.13;7.78;;;;;;;16.12;100.00;101781.19;5077354;28;20024;-76
2022/10/18 05:56:58;;;;;;;19.70;7.82;;;;;;;15.56;100.00;101784.91;5095295;28;20063;-76
2022/10/18 05:59:24;;;;;;;16.60;7.78;;;;;;;13.54;100.00;101721.50;5095610;28;20043;-76
2022/10/18 06:01:49;;;;;;;17.63;7.85;;;;;;;12.89;100.00;101715.34;5095654;28;20662;-77
2022/10/18 06:04:16;;;;;;;14.88;7.32;;;;;;;12.82;100.00;101784.34;5095475;28;20031;-76
2022/10/18 06:06:42;;;;;;;12.15;7.47;;;;;;;12.68;100.00;101788.69;5095407;28;20028;-76
2022/10/18 06:09:08;;;;;;;13.25;6.70;;;;;;;12.26;100.00;101725.25;5095159;28;20075;-75
2022/10/18 06:11:34;;;;;;;12.45;6.68;;;;;;;12.61;100.00;101746.22;5094971;28;20032;-76
2022/10/18 06:14:00;;;;;;;16.42;6.57;;;;;;;12.83;100.00;101742.66;5077850;28;20387;-77
2022/10/18 06:16:26;;;;;;;12.23;6.88;;;;;;;12.97;100.00;101759.53;5095689;28;20084;-76
2022/10/18 06:18:53;;;;;;;11.55;7.57;;;;;;;13.33;100.00;101732.81;5095513;28;20479;-77
2022/10/18 06:21:20;;;;;;;37.38;11.00;;;;;;;12.85;100.00;101726.47;5077436;28;20559;-79
2022/10/18 06:23:50;;;;;;;36.17;11.80;;;;;;;13.10;100.00;101732.22;5094916;28;20031;-79
2022/10/18 06:26:15;;;;;;;27.88;11.30;;;;;;;12.59;100.00;101778.56;5095460;28;20024;-78
2022/10/18 06:28:41;;;;;;;24.65;8.75;;;;;;;12.84;100.00;101755.41;5095252;28;20403;-79
2022/10/18 06:31:07;;;;;;;19.95;9.75;;;;;;;13.71;100.00;101717.00;5095072;28;20119;-79
2022/10/18 06:33:34;;;;;;;24.17;9.85;;;;;;;13.92;100.00;101781.50;5095123;28;20156;-81
2022/10/18 06:36:02;;;;;;;22.20;9.20;;;;;;;14.54;100.00;101780.66;5095266;28;20089;-80
2022/10/18 06:38:28;;;;;;;20.08;8.88;;;;;;;14.37;100.00;101745.97;5094811;28;20115;-79
2022/10/18 06:40:55;;;;;;;23.23;8.90;;;;;;;14.90;100.00;101776.69;5093918;28;20101;-80
2022/10/18 06:43:21;;;;;;;18.67;8.65;;;;;;;14.91;100.00;101764.72;5093781;28;20032;-79
2022/10/18 06:45:47;;;;;;;17.63;8.45;;;;;;;14.54;100.00;101761.91;5093979;28;20114;-78
2022/10/18 06:48:12;;;;;;;15.20;8.10;;;;;;;14.64;100.00;101750.66;5075071;28;20024;-76
2022/10/18 06:50:38;;;;;;;16.70;7.30;;;;;;;15.20;100.00;101736.88;5075485;28;20034;-76
2022/10/18 06:53:05;;;;;;;14.18;7.28;;;;;;;14.95;100.00;101761.25;5093542;28;20032;-76
2022/10/18 06:55:30;;;;;;;15.25;8.20;;;;;;;14.48;100.00;101709.09;5092892;28;20086;-74
2022/10/18 06:57:56;;;;;;;19.33;7.97;;;;;;;15.08;100.00;101688.41;5092212;28;20031;-75
2022/10/18 07:00:22;;;;;;;13.32;6.70;;;;;;;15.29;100.00;101686.28;5074888;28;20052;-76
2022/10/18 07:02:47;;;;;;;15.70;7.65;;;;;;;15.72;100.00;101740.13;5093239;28;20461;-76
2022/10/18 07:05:13;;;;;;;9.95;6.40;;;;;;;15.33;100.00;101703.28;5093086;28;20032;-75
2022/10/18 07:07:38;;;;;;;13.40;5.78;;;;;;;15.09;100.00;101638.88;5074765;28;20038;-75
2022/10/18 07:10:04;;;;;;;12.07;5.72;;;;;;;15.81;100.00;101726.25;5093106;28;20097;-76
2022/10/18 07:12:31;;;;;;;10.80;5.63;;;;;;;15.77;100.00;101716.97;5093349;28;20224;-75
2022/10/18 07:14:56;;;;;;;7.97;5.28;;;;;;;16.21;100.00;101684.28;5093299;28;20040;-77
2022/10/18 07:17:22;;;;;;;12.30;5.32;;;;;;;16.09;100.00;101666.63;5092973;28;20548;-76
2022/10/18 07:19:47;;;;;;;13.40;6.00;;;;;;;16.16;100.00;101673.28;5093840;28;20028;-77
2022/10/18 07:22:12;;;;;;;10.57;5.25;;;;;;;16.73;100.00;101725.00;5074724;28;20024;-77
2022/10/18 07:24:38;;;;;;;15.90;6.28;;;;;;;16.51;100.00;101726.41;5092828;28;20032;-76
2022/10/18 07:27:03;;;;;;;9.77;5.32;;;;;;;16.43;100.00;101718.00;5092944;28;20036;-76
2022/10/18 07:29:29;;;;;;;7.20;4.60;;;;;;;16.24;100.00;101678.25;5092893;28;20032;-76
2022/10/18 07:31:54;;;;;;;6.85;4.65;;;;;;;16.46;100.00;101679.38;5093521;28;20028;-77
2022/10/18 07:34:20;;;;;;;7.25;4.68;;;;;;;16.65;100.00;101644.72;5093209;28;20142;-78
2022/10/18 07:36:45;;;;;;;7.57;4.88;;;;;;;16.48;100.00;101718.72;5093301;28;20028;-78
2022/10/18 07:39:10;;;;;;;11.02;4.63;;;;;;;17.02;100.00;101704.50;5075544;28;20081;-78
2022/10/18 07:41:36;;;;;;;10.23;4.80;;;;;;;16.88;100.00;101695.47;5082933;28;282672;-78
2022/10/18 07:44:03;;;;;;;10.25;5.00;;;;;;;16.92;100.00;101707.34;5075728;28;20036;-77
2022/10/18 07:46:29;;;;;;;9.65;4.47;;;;;;;16.36;100.00;101665.94;5075846;28;20032;-76
2022/10/18 07:48:55;;;;;;;6.20;3.85;;;;;;;16.71;100.00;101695.94;5093714;28;20112;-78
2022/10/18 07:51:21;;;;;;;7.13;4.20;;;;;;;17.13;100.00;101701.66;5075658;28;20055;-77
2022/10/18 07:53:47;;;;;;;6.55;3.85;;;;;;;16.67;100.00;101663.50;5093480;28;20106;-76
2022/10/18 07:56:15;;;;;;;4.97;3.80;;;;;;;17.55;100.00;101694.50;5093116;28;20039;-76
2022/10/18 07:58:46;;;;;;;7.00;4.03;;;;;;;17.43;100.00;101682.78;5093413;28;20019;-76
2022/10/18 08:01:12;;;;;;;6.88;4.15;;;;;;;17.28;100.00;101636.94;5093130;28;20106;-76
2022/10/18 08:03:39;;;;;;;8.25;4.07;;;;;;;16.67;100.00;101609.56;5093489;28;20039;-77
2022/10/18 08:06:07;;;;;;;10.30;4.22;;;;;;;17.40;100.00;101625.47;5093304;28;20111;-77
2022/10/18 08:08:34;;;;;;;10.30;4.20;;;;;;;17.53;100.00;101693.72;5093174;28;20486;-76
2022/10/18 08:11:11;;;;;;;8.13;4.03;;;;;;;17.68;100.00;101685.53;5091990;28;20032;-77
2022/10/18 08:13:36;;;;;;;7.72;3.88;;;;;;;17.27;100.00;101682.38;5093067;28;20106;-76
2022/10/18 08:16:10;;;;;;;8.57;3.90;;;;;;;17.29;100.00;101629.19;5074770;28;20038;-76
2022/10/18 08:18:36;;;;;;;5.55;3.55;;;;;;;18.36;100.00;101678.25;5092761;28;20114;-76
2022/10/18 08:21:03;;;;;;;9.40;3.78;;;;;;;17.21;100.00;101582.28;5075492;28;20043;-76
2022/10/18 08:23:29;;;;;;;5.03;3.05;;;;;;;17.41;100.00;101643.41;5092673;28;20028;-78
2022/10/18 08:25:55;;;;;;;5.35;2.80;;;;;;;18.08;97.48;101668.00;5092403;28;20724;-79
2022/10/18 08:28:20;;;;;;;5.60;2.90;;;;;;;18.34;94.67;101680.03;5074769;28;20404;-78
2022/10/18 08:30:46;;;;;;;7.07;3.53;;;;;;;17.85;97.43;101670.41;5092374;28;20548;-79
2022/10/18 08:33:11;;;;;;;6.22;3.20;;;;;;;18.10;95.45;101623.25;5092754;28;20571;-75
2022/10/18 08:35:37;;;;;;;10.77;3.65;;;;;;;18.01;94.34;101617.56;5093249;28;20028;-79
2022/10/18 08:38:02;;;;;;;4.95;3.10;;;;;;;18.42;97.15;101660.00;5092695;28;20581;-78
2022/10/18 08:40:29;;;;;;;5.07;3.80;;;;;;;18.28;93.81;101583.22;5092746;28;20105;-80
2022/10/18 08:43:16;;;;;;;5.18;3.30;;;;;;;18.72;94.54;101667.56;5092516;28;20032;-80
2022/10/18 08:45:43;;;;;;;8.93;3.03;;;;;;;18.08;96.14;101583.84;5075023;28;20267;-80
2022/10/18 08:48:30;;;;;;;6.57;2.88;;;;;;;18.72;89.74;101657.25;5093593;28;20052;-81
2022/10/18 08:50:57;;;;;;;4.57;3.00;;;;;;;18.19;85.78;101640.16;5093345;28;20055;-79
2022/10/18 08:53:32;;;;;;;6.07;3.08;;;;;;;18.57;91.21;101644.91;5093084;28;20027;-81
2022/10/18 08:56:04;;;;;;;10.20;2.92;;;;;;;19.48;86.52;101641.63;5092614;28;20111;-79
2022/10/18 08:58:32;;;;;;;5.70;2.90;;;;;;;18.97;84.25;101574.75;5092638;28;20058;-81
2022/10/18 09:01:42;;;;;;;9.90;3.10;;;;;;;19.03;84.68;101634.66;5074243;28;20020;-80
2022/10/18 09:04:07;;;;;;;8.15;3.40;;;;;;;19.28;74.51;101634.59;5047623;28;20559;-81
2022/10/18 09:06:41;;;;;;;13.38;7.38;;;;;;;18.94;72.50;101627.25;5092595;28;20028;-81
2022/10/18 09:09:19;;;;;;;8.15;3.30;;;;;;;19.73;71.15;101624.28;5092386;28;20035;-79
2022/10/18 09:12:06;;;;;;;5.90;3.00;;;;;;;19.23;71.42;101630.53;5092475;28;20119;-76
2022/10/18 09:15:05;;;;;;;6.55;3.00;;;;;;;19.21;72.47;101625.44;5092105;28;20032;-79
2022/10/18 09:17:48;;;;;;;7.85;2.92;;;;;;;19.03;69.08;101605.47;5092057;28;20086;-79
2022/10/18 09:20:49;;;;;;;7.20;2.90;;;;;;;19.34;67.77;101618.09;5092201;28;20537;-79
2022/10/18 09:23:30;;;;;;;6.85;3.33;;;;;;;19.75;66.28;101612.16;5091587;28;20040;-79
2022/10/18 09:26:23;;;;;;;6.80;3.22;;;;;;;19.55;63.58;101612.13;5092155;28;20038;-76
2022/10/18 09:28:54;;;;;;;9.60;3.35;;;;;;;19.21;61.61;101603.94;5073204;28;20032;-76
2022/10/18 09:31:44;;;;;;;7.13;3.05;;;;;;;19.31;61.42;101602.72;5096103;28;20031;-75
2022/10/18 09:34:36;;;;;;;4.57;2.60;;;;;;;20.21;58.54;101595.69;5091385;28;20036;-74
2022/10/18 09:37:02;;;;;;;5.88;2.80;;;;;;;19.20;63.57;101532.63;5094354;28;20135;-75
2022/10/18 09:39:32;;;;;;;4.93;2.60;;;;;;;19.53;63.03;101575.22;5093211;28;20032;-76
2022/10/18 09:42:16;;;;;;;5.13;2.90;;;;;;;19.86;67.41;101594.53;5111198;28;20054;-74
2022/10/18 09:44:52;;;;;;;8.45;3.67;;;;;;;20.77;64.08;101542.38;5111770;28;20031;-75
2022/10/18 09:47:23;;;;;;;5.63;3.00;;;;;;;20.72;61.75;101576.19;5111625;28;20031;-76
2022/10/18 09:49:55;;;;;;;7.57;3.40;;;;;;;20.96;60.79;101573.41;5105671;28;20031;-73
2022/10/18 09:52:36;;;;;;;7.35;3.08;;;;;;;19.61;62.27;101575.75;5077661;28;20036;-76
2022/10/18 09:55:14;;;;;;;5.93;2.70;;;;;;;19.80;60.14;101558.63;5091026;28;20024;-80
2022/10/18 09:57:47;;;;;;;7.10;3.20;;;;;;;20.03;59.35;101512.03;5101200;28;20144;-78
2022/10/18 10:00:33;;;;;;;7.63;3.13;;;;;;;19.95;59.67;101423.72;5100745;28;20042;-76
2022/10/18 10:03:00;;;;;;;3.47;2.20;;;;;;;20.16;58.98;101557.09;5091180;28;20549;-75
2022/10/18 10:05:26;;;;;;;6.82;2.50;;;;;;;20.24;59.04;101539.56;5071404;28;20101;-77
2022/10/18 10:07:58;;;;;;;5.95;2.65;;;;;;;21.18;56.10;101535.34;5091470;28;20491;-76
2022/10/18 10:10:30;;;;;;;6.13;2.33;;;;;;;20.63;55.87;101516.31;5090863;28;20084;-77
2022/10/18 10:13:14;;;;;;;5.95;2.13;;;;;;;21.36;55.90;101522.38;5091409;28;20020;-77
2022/10/18 10:15:45;;;;;;;7.70;3.40;;;;;;;21.05;54.88;101479.91;5091493;28;20501;-79
2022/10/18 10:18:33;;;;;;;7.43;2.05;;;;;;;21.02;54.82;101451.59;5090522;28;20028;-77
2022/10/18 10:21:07;;;;;;;4.60;2.40;;;;;;;21.18;54.59;101510.31;5091066;28;20725;-80
2022/10/18 10:23:43;;;;;;;3.35;2.15;;;;;;;21.05;58.28;101488.53;5073096;28;20403;-77
2022/10/18 10:26:38;;;;;;;3.63;1.70;;;;;;;21.38;57.97;101476.56;5091291;28;20551;-78
2022/10/18 10:29:23;;;;;;;4.03;1.55;;;;;;;21.65;54.31;101427.75;5069385;28;20040;-78
2022/10/18 10:32:01;;;;;;;4.22;1.80;;;;;;;21.20;55.55;101463.66;5091243;28;20032;-79
2022/10/18 10:34:29;;;;;;;4.60;1.60;;;;;;;21.47;54.80;101465.75;5094988;28;20032;-79
2022/10/18 10:36:55;;;;;;;4.03;1.60;;;;;;;21.90;53.63;101458.47;5095095;28;20418;-77
2022/10/18 10:39:22;;;;;;;3.25;1.55;;;;;;;21.05;55.67;101390.22;5077301;28;20043;-78
2022/10/18 10:41:52;;;;;;;3.72;1.30;;;;;;;21.14;57.48;101451.84;5094890;28;20087;-78
2022/10/18 10:44:22;;;;;;;5.47;1.48;;;;;;;21.30;54.31;101401.03;5095614;28;20344;-77
2022/10/18 10:46:49;;;;;;;6.20;1.58;;;;;;;21.18;55.52;101439.59;5095589;28;20028;-79
2022/10/18 10:49:21;;;;;;;5.55;1.80;;;;;;;21.19;57.26;101350.75;5095108;28;20035;-79
2022/10/18 10:51:54;;;;;;;7.47;2.20;;;;;;;21.43;58.62;101424.56;5077192;28;20020;-78
2022/10/18 10:54:25;;;;;;;7.10;2.50;;;;;;;21.08;58.69;101382.31;5077080;28;20036;-78
2022/10/18 10:57:15;;;;;;;5.67;2.00;;;;;;;21.39;60.65;101438.59;5094660;28;20035;-78
2022/10/18 10:59:47;;;;;;;4.78;1.80;;;;;;;21.38;58.28;101429.97;5094651;28;20036;-78
2022/10/18 11:02:13;;;;;;;3.55;1.83;;;;;;;21.61;57.91;101425.41;5094576;28;20032;-78
2022/10/18 11:04:40;;;;;;;5.20;1.90;;;;;;;21.51;57.64;101378.44;5094751;28;20020;-78
2022/10/18 11:07:08;;;;;;;4.80;1.85;;;;;;;21.95;57.68;101410.69;5076612;28;20063;-77
2022/10/18 11:09:47;;;;;;;5.03;1.85;;;;;;;21.78;56.06;101415.03;5075723;28;20039;-78
2022/10/18 11:12:32;;;;;;;5.60;1.70;;;;;;;21.62;57.99;101394.25;5094898;28;20108;-78
2022/10/18 11:15:10;;;;;;;4.38;1.80;;;;;;;22.34;56.89;101398.19;5076725;28;20123;-77
2022/10/18 11:17:54;;;;;;;3.45;1.92;;;;;;;21.43;58.40;101396.09;5076193;28;20040;-77
2022/10/18 11:20:26;;;;;;;6.65;2.35;;;;;;;21.40;57.25;101386.72;5094548;28;20147;-76
2022/10/18 11:22:59;;;;;;;;;;;;;;;22.05;56.15;101382.53;5094968;28;20063;-75
2022/10/18 11:25:41;;;;;;;7.15;2.10;;;;;;;21.62;56.88;101331.28;5094144;28;19958;-76
2022/10/18 11:28:40;;;;;;;8.18;2.10;;;;;;;21.68;60.29;101375.81;5075885;28;20085;-79